createdAt,value
2019-03-28T00:00:16.998Z,20.97
2019-03-28T00:02:48.637Z,22.47
2019-03-28T00:05:18.648Z,15.53
2019-03-28T00:07:49.054Z,21.97
2019-03-28T00:10:19.432Z,21.83
2019-03-28T00:12:49.510Z,22.40
2019-03-28T00:15:19.279Z,17.90
2019-03-28T00:17:49.583Z,26.57
2019-03-28T00:20:20.201Z,17.83
2019-03-28T00:23:08.407Z,15.07
2019-03-28T00:25:40.049Z,20.50
2019-03-28T00:28:14.753Z,19.13
2019-03-28T00:30:44.605Z,21.33
2019-03-28T00:33:14.872Z,18.43
2019-03-28T00:35:45.186Z,18.30
2019-03-28T00:38:15.190Z,18.50
2019-03-28T00:40:45.226Z,15.77
2019-03-28T00:43:17.617Z,20.57
2019-03-28T00:45:48.776Z,16.80
2019-03-28T00:48:18.781Z,18.67
2019-03-28T00:50:49.107Z,24.47
2019-03-28T00:53:18.842Z,17.20
2019-03-28T00:55:50.190Z,17.87
2019-03-28T00:58:22.493Z,20.33
2019-03-28T01:00:55.604Z,18.90
2019-03-28T01:03:25.333Z,17.73
2019-03-28T01:05:55.884Z,18.03
2019-03-28T01:08:26.163Z,18.67
2019-03-28T01:10:57.135Z,17.70
2019-03-28T01:13:26.884Z,25.57
2019-03-28T01:15:57.184Z,17.40
2019-03-28T01:18:27.303Z,18.40
2019-03-28T01:20:59.370Z,17.07
2019-03-28T01:23:34.072Z,20.17
2019-03-28T01:26:04.423Z,16.80
2019-03-28T01:28:37.187Z,20.77
2019-03-28T01:31:08.406Z,19.03
2019-03-28T01:33:38.961Z,19.00
2019-03-28T01:36:15.469Z,16.57
2019-03-28T01:38:46.366Z,21.33
2019-03-28T01:41:16.406Z,19.27
2019-03-28T01:43:46.633Z,19.00
2019-03-28T01:46:18.378Z,20.47
2019-03-28T01:48:48.960Z,20.20
2019-03-28T01:51:19.633Z,20.27
2019-03-28T01:53:57.499Z,24.50
2019-03-28T01:56:27.662Z,21.20
2019-03-28T01:58:57.705Z,22.10
2019-03-28T02:01:30.120Z,16.73
2019-03-28T02:04:01.102Z,18.87
2019-03-28T02:06:33.171Z,20.90
2019-03-28T02:09:06.119Z,20.13
2019-03-28T02:11:37.272Z,19.47
2019-03-28T02:14:08.557Z,16.20
2019-03-28T02:16:39.118Z,17.47
2019-03-28T02:19:09.315Z,17.53
2019-03-28T02:21:39.444Z,19.60
2019-03-28T02:24:09.421Z,17.23
2019-03-28T02:26:42.330Z,18.80
2019-03-28T02:29:12.882Z,19.77
2019-03-28T02:31:47.926Z,19.20
2019-03-28T02:34:18.455Z,23.90
2019-03-28T02:36:48.768Z,27.10
2019-03-28T02:39:19.015Z,19.80
2019-03-28T02:41:49.951Z,23.63
2019-03-28T02:44:19.698Z,22.80
2019-03-28T02:46:51.074Z,26.17
2019-03-28T02:49:21.978Z,26.70
2019-03-28T02:51:53.130Z,23.30
2019-03-28T02:54:26.818Z,20.37
2019-03-28T02:56:57.431Z,25.33
2019-03-28T02:59:29.008Z,19.47
2019-03-28T03:02:01.107Z,23.30
2019-03-28T03:04:34.756Z,24.50
2019-03-28T03:07:06.076Z,26.17
2019-03-28T03:09:37.219Z,21.07
2019-03-28T03:12:09.062Z,22.33
2019-03-28T03:14:39.849Z,24.00
2019-03-28T03:17:10.221Z,28.63
2019-03-28T03:19:46.039Z,29.43
2019-03-28T03:22:16.047Z,25.10
2019-03-28T03:24:46.458Z,23.47
2019-03-28T03:27:16.189Z,19.67
2019-03-28T03:29:46.537Z,18.27
2019-03-28T03:32:17.233Z,19.30
2019-03-28T03:34:48.831Z,21.73
2019-03-28T03:37:20.564Z,20.93
2019-03-28T03:39:50.874Z,21.37
2019-03-28T03:42:23.585Z,24.03
2019-03-28T03:44:54.477Z,20.43
2019-03-28T03:47:25.226Z,20.93
2019-03-28T03:49:56.761Z,23.17
2019-03-28T03:52:27.529Z,21.70
2019-03-28T03:55:01.741Z,21.80
2019-03-28T03:57:33.030Z,23.03
2019-03-28T04:00:06.616Z,21.83
2019-03-28T04:02:38.892Z,25.70
2019-03-28T04:05:09.291Z,32.33
2019-03-28T04:07:39.375Z,28.20
2019-03-28T04:10:10.602Z,28.07
2019-03-28T04:12:44.353Z,26.63
2019-03-28T04:15:18.932Z,25.33
2019-03-28T04:17:49.771Z,27.23
2019-03-28T04:20:28.604Z,26.63
2019-03-28T04:23:01.383Z,24.17
2019-03-28T04:25:40.330Z,29.80
2019-03-28T04:28:24.797Z,27.87
2019-03-28T04:30:49.660Z,23.87
2019-03-28T04:33:21.142Z,26.00
2019-03-28T04:35:52.740Z,24.93
2019-03-28T04:38:24.557Z,23.33
2019-03-28T04:40:55.651Z,27.73
2019-03-28T04:43:25.680Z,23.40
2019-03-28T04:45:58.808Z,22.53
2019-03-28T04:48:30.894Z,22.60
2019-03-28T04:51:21.147Z,25.83
2019-03-28T04:53:51.715Z,27.97
2019-03-28T04:56:23.024Z,29.63
2019-03-28T04:58:55.360Z,26.50
2019-03-28T05:01:26.523Z,23.87
2019-03-28T05:03:56.881Z,26.70
2019-03-28T05:06:28.254Z,28.57
2019-03-28T05:08:59.881Z,30.90
2019-03-28T05:11:30.284Z,29.57
2019-03-28T05:14:00.389Z,28.70
2019-03-28T05:16:30.809Z,26.03
2019-03-28T05:19:02.938Z,29.37
2019-03-28T05:21:36.338Z,30.63
2019-03-28T05:24:06.606Z,29.27
2019-03-28T05:26:37.216Z,29.20
2019-03-28T05:29:07.522Z,27.07
2019-03-28T05:31:37.284Z,33.10
2019-03-28T05:34:09.196Z,31.70
2019-03-28T05:36:41.526Z,29.93
2019-03-28T05:39:12.156Z,31.70
2019-03-28T05:41:42.091Z,33.03
2019-03-28T05:44:12.785Z,29.23
2019-03-28T05:46:43.383Z,29.87
2019-03-28T05:49:15.696Z,29.27
2019-03-28T05:51:45.497Z,28.43
2019-03-28T05:54:15.206Z,29.80
2019-03-28T05:56:44.969Z,32.60
2019-03-28T05:59:15.946Z,28.87
2019-03-28T06:01:48.697Z,29.17
2019-03-28T06:04:23.629Z,27.63
2019-03-28T06:06:54.033Z,29.37
2019-03-28T06:09:24.050Z,28.53
2019-03-28T06:11:54.880Z,28.97
2019-03-28T06:14:24.641Z,26.63
2019-03-28T06:16:55.042Z,27.93
2019-03-28T06:19:26.299Z,23.67
2019-03-28T06:21:56.053Z,29.03
2019-03-28T06:24:26.052Z,32.47
2019-03-28T06:26:56.624Z,28.60
2019-03-28T06:29:26.619Z,29.77
2019-03-28T06:31:56.364Z,28.73
2019-03-28T06:34:26.545Z,29.47
2019-03-28T06:36:56.371Z,29.97
2019-03-28T06:39:26.123Z,28.37
2019-03-28T06:41:55.893Z,27.23
2019-03-28T06:44:26.019Z,32.57
2019-03-28T06:46:55.730Z,28.70
2019-03-28T06:49:27.101Z,29.63
2019-03-28T06:51:56.862Z,37.67
2019-03-28T06:54:26.599Z,27.97
2019-03-28T06:56:58.409Z,26.40
2019-03-28T06:59:37.146Z,31.73
2019-03-28T07:01:59.966Z,27.57
2019-03-28T07:04:30.323Z,33.27
2019-03-28T07:07:00.527Z,31.20
2019-03-28T07:09:31.192Z,27.53
2019-03-28T07:12:00.920Z,30.10
2019-03-28T07:14:30.678Z,28.33
2019-03-28T07:17:00.683Z,29.10
2019-03-28T07:19:33.269Z,29.50
2019-03-28T07:22:03.863Z,31.53
2019-03-28T07:24:35.534Z,28.50
2019-03-28T07:27:08.759Z,27.30
2019-03-28T07:29:50.628Z,30.13
2019-03-28T07:32:14.550Z,26.03
2019-03-28T07:34:44.694Z,29.80
2019-03-28T07:37:15.053Z,32.07
2019-03-28T07:39:45.100Z,27.97
2019-03-28T07:42:15.212Z,29.13
2019-03-28T07:44:47.891Z,30.33
2019-03-28T07:47:18.392Z,27.73
2019-03-28T07:49:48.787Z,28.13
2019-03-28T07:52:20.190Z,26.77
2019-03-28T07:54:51.431Z,28.50
2019-03-28T07:57:23.371Z,28.60
2019-03-28T08:00:03.994Z,25.87
2019-03-28T08:02:29.498Z,26.10
2019-03-28T08:05:02.275Z,25.63
2019-03-28T08:07:44.354Z,28.83
2019-03-28T08:10:04.990Z,24.90
2019-03-28T08:12:37.611Z,28.00
2019-03-28T08:15:08.546Z,29.33
2019-03-28T08:17:39.409Z,30.43
2019-03-28T08:20:29.443Z,27.83
2019-03-28T08:23:01.323Z,24.23
2019-03-28T08:25:31.891Z,24.13
2019-03-28T08:28:09.922Z,28.40
2019-03-28T08:30:45.165Z,22.90
2019-03-28T08:33:14.013Z,26.93
2019-03-28T08:35:45.030Z,25.70
2019-03-28T08:38:16.593Z,25.93
2019-03-28T08:40:47.519Z,22.43
2019-03-28T08:43:18.045Z,22.53
2019-03-28T08:45:49.523Z,22.87
2019-03-28T08:48:19.249Z,25.03
2019-03-28T08:50:49.938Z,27.20
2019-03-28T08:53:20.518Z,24.33
2019-03-28T08:55:52.465Z,24.60
2019-03-28T08:58:24.243Z,23.87
2019-03-28T09:00:57.154Z,25.43
2019-03-28T09:03:27.707Z,26.13
2019-03-28T09:05:57.750Z,25.27
2019-03-28T09:08:28.331Z,24.60
2019-03-28T09:10:59.538Z,23.17
2019-03-28T09:13:30.055Z,20.87
2019-03-28T09:16:00.970Z,22.80
2019-03-28T09:18:31.962Z,21.53
2019-03-28T09:21:03.191Z,21.30
2019-03-28T09:23:34.236Z,24.13
2019-03-28T09:26:04.994Z,23.23
2019-03-28T09:28:35.481Z,22.17
2019-03-28T09:31:19.327Z,26.43
2019-03-28T09:33:44.761Z,24.90
2019-03-28T09:36:15.011Z,27.63
2019-03-28T09:38:45.264Z,22.37
2019-03-28T09:41:15.547Z,19.67
2019-03-28T09:43:55.068Z,18.63
2019-03-28T09:46:20.722Z,17.27
2019-03-28T09:48:50.298Z,19.33
2019-03-28T09:51:20.930Z,19.50
2019-03-28T09:53:53.993Z,16.30
2019-03-28T09:56:24.355Z,16.83
2019-03-28T09:58:56.226Z,17.80
2019-03-28T10:01:26.880Z,18.30
2019-03-28T10:03:59.144Z,17.17
2019-03-28T10:06:29.417Z,17.73
2019-03-28T10:09:00.072Z,15.17
2019-03-28T10:11:30.106Z,15.10
2019-03-28T10:13:59.713Z,15.80
2019-03-28T10:16:29.509Z,13.63
2019-03-28T10:19:00.120Z,12.07
2019-03-28T10:21:30.053Z,8.93
2019-03-28T10:24:01.316Z,9.03
2019-03-28T10:26:31.332Z,8.77
2019-03-28T10:29:01.338Z,9.57
2019-03-28T10:31:31.312Z,11.40
2019-03-28T10:34:01.579Z,8.23
2019-03-28T10:36:32.174Z,10.87
2019-03-28T10:39:23.582Z,8.73
2019-03-28T10:41:54.734Z,9.30
2019-03-28T10:44:28.440Z,9.30
2019-03-28T10:46:59.927Z,7.17
2019-03-28T10:49:30.440Z,11.50
2019-03-28T10:52:04.046Z,11.00
2019-03-28T10:54:33.727Z,8.97
2019-03-28T10:57:13.558Z,8.83
2019-03-28T10:59:34.943Z,8.43
2019-03-28T11:02:05.153Z,7.83
2019-03-28T11:04:34.899Z,7.60
2019-03-28T11:07:04.762Z,8.47
2019-03-28T11:09:34.875Z,10.27
2019-03-28T11:12:05.109Z,8.63
2019-03-28T11:14:34.828Z,8.70
2019-03-28T11:17:04.586Z,11.70
2019-03-28T11:19:34.319Z,10.90
2019-03-28T11:22:05.180Z,9.27
2019-03-28T11:24:39.535Z,9.23
2019-03-28T11:27:09.553Z,10.30
2019-03-28T11:29:40.617Z,9.87
2019-03-28T11:32:10.445Z,13.20
2019-03-28T11:34:41.079Z,8.87
2019-03-28T11:37:25.311Z,7.60
2019-03-28T11:39:46.711Z,10.80
2019-03-28T11:42:17.572Z,8.73
2019-03-28T11:44:47.686Z,12.40
2019-03-28T11:47:22.374Z,8.97
2019-03-28T11:49:53.719Z,9.03
2019-03-28T11:52:24.670Z,8.90
2019-03-28T11:54:54.871Z,10.77
2019-03-28T11:57:26.115Z,8.57
2019-03-28T11:59:57.963Z,8.90
2019-03-28T12:02:28.417Z,8.40
2019-03-28T12:04:58.481Z,8.13
2019-03-28T12:07:29.405Z,10.63
2019-03-28T12:09:59.941Z,10.53
2019-03-28T12:12:29.810Z,7.67
2019-03-28T12:15:00.394Z,9.87
2019-03-28T12:17:31.343Z,7.70
2019-03-28T12:20:05.148Z,9.40
2019-03-28T12:22:37.106Z,9.53
2019-03-28T12:25:09.176Z,7.87
2019-03-28T12:27:40.141Z,7.77
2019-03-28T12:30:11.328Z,9.13
2019-03-28T12:32:44.183Z,8.70
2019-03-28T12:35:18.841Z,7.57
2019-03-28T12:37:49.883Z,9.60
2019-03-28T12:40:20.379Z,7.57
2019-03-28T12:42:54.799Z,7.80
2019-03-28T12:45:29.185Z,9.03
2019-03-28T12:48:01.276Z,8.40
2019-03-28T12:50:31.082Z,7.97
2019-03-28T12:53:01.633Z,9.50
2019-03-28T12:55:33.908Z,7.77
2019-03-28T12:58:06.130Z,9.50
2019-03-28T13:00:39.278Z,9.93
2019-03-28T13:03:10.392Z,6.70
2019-03-28T13:05:42.264Z,7.03
2019-03-28T13:08:12.472Z,9.10
2019-03-28T13:10:44.764Z,7.47
2019-03-28T13:13:15.614Z,7.97
2019-03-28T13:15:45.491Z,9.57
2019-03-28T13:18:18.530Z,15.93
2019-03-28T13:20:48.910Z,8.23
2019-03-28T13:23:45.151Z,7.33
2019-03-28T13:26:16.462Z,8.57
2019-03-28T13:28:52.549Z,7.73
2019-03-28T13:31:25.204Z,8.63
2019-03-28T13:33:57.641Z,7.33
2019-03-28T13:36:29.368Z,6.80
2019-03-28T13:39:06.615Z,6.60
2019-03-28T13:41:38.774Z,9.50
2019-03-28T13:44:12.225Z,8.37
2019-03-28T13:46:43.020Z,8.07
2019-03-28T13:49:15.772Z,8.57
2019-03-28T13:51:45.919Z,8.33
2019-03-28T13:54:23.284Z,11.00
2019-03-28T13:56:53.341Z,8.90
2019-03-28T13:59:24.376Z,8.73
2019-03-28T14:01:56.761Z,9.23
2019-03-28T14:04:30.885Z,8.87
2019-03-28T14:07:02.158Z,10.93
2019-03-28T14:09:32.334Z,11.47
2019-03-28T14:12:02.068Z,9.37
2019-03-28T14:14:35.112Z,7.60
2019-03-28T14:17:05.130Z,9.23
2019-03-28T14:19:36.162Z,8.67
2019-03-28T14:22:06.614Z,11.33
2019-03-28T14:24:36.414Z,11.60
2019-03-28T14:27:06.451Z,11.43
2019-03-28T14:29:38.002Z,9.10
2019-03-28T14:32:20.903Z,9.97
2019-03-28T14:34:50.829Z,9.47
2019-03-28T14:37:21.302Z,9.60
2019-03-28T14:39:51.808Z,8.37
2019-03-28T14:42:22.367Z,12.80
2019-03-28T14:44:53.019Z,8.30
2019-03-28T14:47:25.689Z,9.47
2019-03-28T14:49:57.196Z,11.57
2019-03-28T14:52:26.976Z,11.77
2019-03-28T14:54:56.711Z,11.13
2019-03-28T14:57:28.113Z,9.60
2019-03-28T14:59:59.995Z,8.60
2019-03-28T15:02:30.095Z,10.73
2019-03-28T15:05:01.380Z,11.83
2019-03-28T15:07:31.828Z,12.60
2019-03-28T15:10:02.065Z,11.67
2019-03-28T15:12:33.468Z,10.07
2019-03-28T15:15:03.212Z,8.50
2019-03-28T15:17:34.632Z,8.50
2019-03-28T15:20:05.107Z,7.23
2019-03-28T15:22:35.252Z,7.87
2019-03-28T15:25:06.984Z,8.50
2019-03-28T15:27:36.772Z,10.13
2019-03-28T15:30:07.525Z,8.33
2019-03-28T15:32:37.500Z,9.93
2019-03-28T15:35:07.829Z,8.27
2019-03-28T15:37:37.581Z,11.33
2019-03-28T15:40:08.425Z,13.20
2019-03-28T15:42:39.501Z,8.77
2019-03-28T15:45:09.980Z,9.17
2019-03-28T15:47:40.003Z,10.30
2019-03-28T15:50:10.939Z,9.40
2019-03-28T15:52:41.533Z,10.27
2019-03-28T15:55:14.450Z,8.87
2019-03-28T15:57:42.726Z,10.23
2019-03-28T16:00:12.679Z,12.93
2019-03-28T16:02:42.401Z,11.17
2019-03-28T16:05:12.449Z,10.93
2019-03-28T16:07:42.211Z,12.53
2019-03-28T16:10:14.698Z,13.73
2019-03-28T16:12:44.283Z,11.70
2019-03-28T16:15:16.050Z,14.50
2019-03-28T16:17:48.046Z,14.70
2019-03-28T16:20:17.810Z,11.40
2019-03-28T16:22:50.399Z,13.00
2019-03-28T16:25:21.678Z,11.27
2019-03-28T16:27:53.879Z,14.73
2019-03-28T16:30:48.476Z,14.53
2019-03-28T16:33:18.612Z,12.80
2019-03-28T16:35:48.583Z,15.33
2019-03-28T16:38:19.631Z,9.97
2019-03-28T16:40:50.503Z,14.93
2019-03-28T16:43:20.245Z,10.13
2019-03-28T16:45:50.022Z,12.77
2019-03-28T16:48:20.598Z,12.33
2019-03-28T16:50:50.639Z,13.87
2019-03-28T16:53:20.421Z,11.97
2019-03-28T16:55:50.772Z,11.77
2019-03-28T16:58:22.030Z,11.50
2019-03-28T17:00:52.330Z,13.23
2019-03-28T17:03:22.520Z,8.97
2019-03-28T17:05:52.803Z,11.63
2019-03-28T17:08:23.768Z,16.13
2019-03-28T17:10:57.830Z,9.50
2019-03-28T17:13:30.470Z,14.00
2019-03-28T17:16:00.926Z,10.27
2019-03-28T17:18:31.400Z,9.13
2019-03-28T17:21:01.492Z,12.37
2019-03-28T17:23:32.172Z,12.13
2019-03-28T17:26:01.958Z,10.47
2019-03-28T17:28:33.979Z,7.90
2019-03-28T17:31:03.787Z,10.13
2019-03-28T17:33:37.882Z,10.27
2019-03-28T17:36:10.802Z,7.70
2019-03-28T17:38:40.630Z,9.50
2019-03-28T17:41:10.400Z,6.47
2019-03-28T17:43:40.200Z,11.23
2019-03-28T17:46:12.441Z,7.20
2019-03-28T17:48:42.852Z,8.77
2019-03-28T17:51:13.731Z,10.93
2019-03-28T17:53:43.824Z,7.97
2019-03-28T17:56:15.011Z,9.27
2019-03-28T17:58:44.897Z,10.10
2019-03-28T18:01:16.145Z,8.30
2019-03-28T18:03:46.940Z,7.30
2019-03-28T18:06:17.208Z,9.63
2019-03-28T18:08:57.109Z,6.57
2019-03-28T18:11:29.613Z,7.67
2019-03-28T18:13:59.779Z,8.40
2019-03-28T18:16:29.627Z,7.40
2019-03-28T18:18:59.613Z,9.10
2019-03-28T18:21:38.083Z,8.87
2019-03-28T18:24:08.011Z,9.37
2019-03-28T18:26:37.777Z,10.13
2019-03-28T18:29:07.490Z,9.60
2019-03-28T18:31:49.641Z,8.03
2019-03-28T18:34:12.567Z,8.63
2019-03-28T18:36:42.373Z,9.80
2019-03-28T18:39:12.147Z,11.13
2019-03-28T18:41:43.933Z,9.00
2019-03-28T18:44:14.362Z,7.83
2019-03-28T18:46:46.442Z,9.67
2019-03-28T18:49:16.812Z,10.57
2019-03-28T18:51:47.037Z,10.60
2019-03-28T18:54:20.220Z,11.17
2019-03-28T18:56:50.097Z,7.93
2019-03-28T18:59:19.799Z,8.57
2019-03-28T19:01:51.390Z,11.03
2019-03-28T19:04:21.464Z,7.93
2019-03-28T19:06:51.287Z,7.50
2019-03-28T19:09:21.860Z,7.13
2019-03-28T19:11:53.746Z,7.03
2019-03-28T19:14:23.711Z,8.03
2019-03-28T19:16:53.481Z,8.77
2019-03-28T19:19:23.564Z,10.30
2019-03-28T19:21:55.846Z,7.33
2019-03-28T19:24:25.120Z,6.83
2019-03-28T19:26:55.041Z,10.17
2019-03-28T19:29:26.758Z,8.30
2019-03-28T19:31:57.927Z,10.50
2019-03-28T19:34:27.767Z,8.33
2019-03-28T19:36:57.942Z,9.23
2019-03-28T19:39:32.154Z,9.37
2019-03-28T19:42:04.561Z,10.53
2019-03-28T19:44:33.372Z,7.13
2019-03-28T19:47:03.380Z,9.03
2019-03-28T19:49:33.151Z,7.40
2019-03-28T19:52:02.900Z,7.47
2019-03-28T19:54:33.885Z,13.60
2019-03-28T19:57:03.870Z,16.63
2019-03-28T19:59:37.277Z,10.73
2019-03-28T20:02:08.084Z,9.87
2019-03-28T20:04:43.030Z,31.87
2019-03-28T20:07:21.526Z,25.60
2019-03-28T20:09:46.379Z,19.37
2019-03-28T20:12:16.446Z,13.07
2019-03-28T20:14:47.202Z,10.90
2019-03-28T20:17:18.791Z,17.10
2019-03-28T20:19:48.555Z,14.10
2019-03-28T20:22:18.566Z,7.63
2019-03-28T20:24:49.771Z,10.80
2019-03-28T20:27:24.575Z,9.83
2019-03-28T20:29:56.674Z,7.83
2019-03-28T20:32:27.511Z,7.53
2019-03-28T20:35:01.702Z,11.40
2019-03-28T20:37:31.619Z,9.33
2019-03-28T20:40:03.772Z,9.77
2019-03-28T20:42:34.939Z,9.37
2019-03-28T20:45:10.816Z,10.70
2019-03-28T20:47:43.120Z,9.13
2019-03-28T20:50:17.848Z,10.43
2019-03-28T20:52:49.694Z,10.10
2019-03-28T20:55:20.295Z,12.13
2019-03-28T20:57:51.750Z,10.47
2019-03-28T21:00:43.250Z,9.97
2019-03-28T21:03:17.567Z,10.07
2019-03-28T21:05:48.387Z,10.97
2019-03-28T21:08:19.280Z,8.63
2019-03-28T21:10:51.196Z,9.40
2019-03-28T21:13:21.853Z,11.43
2019-03-28T21:15:53.859Z,12.27
2019-03-28T21:18:26.294Z,11.37
2019-03-28T21:20:57.470Z,10.40
2019-03-28T21:23:29.658Z,9.83
2019-03-28T21:26:02.344Z,11.77
2019-03-28T21:28:46.456Z,11.40
2019-03-28T21:31:07.336Z,12.00
2019-03-28T21:33:37.087Z,11.93
2019-03-28T21:36:08.607Z,10.23
2019-03-28T21:38:40.376Z,11.67
2019-03-28T21:41:12.831Z,10.60
2019-03-28T21:43:42.755Z,9.67
2019-03-28T21:46:13.733Z,11.07
2019-03-28T21:48:46.710Z,10.23
2019-03-28T21:51:18.526Z,13.20
2019-03-28T21:53:51.971Z,11.70
2019-03-28T21:56:22.467Z,9.97
2019-03-28T21:58:53.670Z,10.87
2019-03-28T22:01:27.335Z,10.13
2019-03-28T22:04:01.299Z,12.00
2019-03-28T22:06:42.309Z,11.87
2019-03-28T22:09:04.144Z,11.60
2019-03-28T22:11:34.560Z,11.60
2019-03-28T22:14:04.626Z,10.77
2019-03-28T22:16:35.078Z,11.33
2019-03-28T22:19:06.060Z,11.53
2019-03-28T22:21:36.330Z,9.80
2019-03-28T22:24:06.182Z,10.90
2019-03-28T22:26:35.946Z,9.10
2019-03-28T22:29:06.459Z,13.77
2019-03-28T22:31:36.238Z,9.33
2019-03-28T22:34:06.021Z,11.47
2019-03-28T22:36:35.829Z,10.23
2019-03-28T22:39:08.177Z,12.17
2019-03-28T22:41:38.462Z,11.13
2019-03-28T22:44:14.197Z,11.17
2019-03-28T22:46:42.793Z,10.93
2019-03-28T22:49:14.182Z,12.90
2019-03-28T22:51:44.233Z,11.93
2019-03-28T22:54:14.249Z,12.33
2019-03-28T22:56:44.199Z,11.20
2019-03-28T22:59:14.998Z,13.67
2019-03-28T23:01:44.899Z,11.53
2019-03-28T23:04:15.104Z,14.50
2019-03-28T23:06:45.280Z,12.77
2019-03-28T23:09:14.989Z,10.50
2019-03-28T23:11:46.010Z,10.93
2019-03-28T23:14:15.759Z,10.90
2019-03-28T23:16:45.894Z,15.03
2019-03-28T23:19:15.916Z,12.17
2019-03-28T23:21:45.681Z,12.13
2019-03-28T23:24:17.836Z,10.13
2019-03-28T23:26:48.302Z,11.30
2019-03-28T23:29:19.648Z,13.13
2019-03-28T23:31:50.831Z,11.33
2019-03-28T23:34:21.182Z,9.20
2019-03-28T23:36:51.745Z,12.47
2019-03-28T23:39:22.634Z,14.77
2019-03-28T23:41:54.078Z,14.40
2019-03-28T23:44:23.840Z,11.80
2019-03-28T23:46:53.953Z,13.30
2019-03-28T23:49:23.701Z,12.73
2019-03-28T23:51:54.601Z,12.60
2019-03-28T23:54:26.814Z,12.17
2019-03-28T23:56:57.199Z,12.83
2019-03-28T23:59:28.440Z,12.37
